Time;durP1;ratioP1;P1;durP2;ratioP2;P2;SDS_P1;SDS_P2;PMS_P1;PMS_P2;Temp;Humidity;BMP_temperature;BMP_pressure;BME280_temperature;BME280_humidity;BME280_pressure;Samples;Min_cycle;Max_cycle;Signal;HPM_P1;HPM_P2
2022/10/28 00:01:21;;;;;;;18.08;9.48;;;12.60;99.90;;;;;;5049095;28;20063;-84
2022/10/28 00:03:50;;;;;;;15.20;8.48;;;12.60;99.90;;;;;;5075756;28;20040;-80
2022/10/28 00:06:20;;;;;;;17.08;9.57;;;12.60;99.90;;;;;;5059655;28;20025;-86
2022/10/28 00:08:47;;;;;;;16.77;8.98;;;12.60;99.90;;;;;;5053505;28;20043;-86
2022/10/28 00:11:16;;;;;;;17.65;9.35;;;12.60;99.90;;;;;;5035760;28;20030;-85
2022/10/28 00:13:43;;;;;;;20.20;10.55;;;12.60;99.90;;;;;;5034528;28;20382;-85
2022/10/28 00:16:12;;;;;;;17.30;10.45;;;12.70;99.90;;;;;;5033003;28;20033;-85
2022/10/28 00:18:39;;;;;;;19.58;10.93;;;12.70;99.90;;;;;;5040063;28;20033;-84
2022/10/28 00:21:11;;;;;;;18.25;10.13;;;12.70;99.90;;;;;;5055251;28;20034;-86
2022/10/28 00:23:38;;;;;;;16.58;9.00;;;12.80;99.90;;;;;;5035193;28;20482;-83
2022/10/28 00:26:30;;;;;;;18.40;10.30;;;12.80;99.90;;;;;;5032961;28;20026;-86
2022/10/28 00:28:59;;;;;;;20.15;10.30;;;12.80;99.90;;;;;;5048790;28;20048;-85
2022/10/28 00:31:27;;;;;;;21.10;10.52;;;12.80;99.90;;;;;;5051568;28;20037;-86
2022/10/28 00:33:54;;;;;;;18.63;9.57;;;12.80;99.90;;;;;;5039248;28;20063;-85
2022/10/28 00:36:23;;;;;;;16.83;9.60;;;12.80;99.90;;;;;;5029134;28;20041;-86
2022/10/28 00:38:52;;;;;;;21.50;10.18;;;12.80;99.90;;;;;;5043284;28;20037;-86
2022/10/28 00:41:22;;;;;;;15.52;9.32;;;12.90;99.90;;;;;;5032746;28;20053;-85
2022/10/28 00:43:52;;;;;;;21.00;9.23;;;12.90;99.90;;;;;;5050274;28;20033;-86
2022/10/28 00:46:45;;;;;;;15.70;9.07;;;12.90;99.90;;;;;;5051418;28;20036;-84
2022/10/28 00:49:29;;;;;;;15.13;8.57;;;12.90;99.90;;;;;;5034769;28;20049;-84
2022/10/28 00:52:01;;;;;;;14.52;8.80;;;13.10;99.90;;;;;;5033739;28;20483;-84
2022/10/28 00:54:28;;;;;;;19.70;9.85;;;13.10;99.90;;;;;;5031381;28;20042;-84
2022/10/28 00:56:56;;;;;;;16.48;9.57;;;13.20;99.90;;;;;;5033129;28;20033;-84
2022/10/28 00:59:31;;;;;;;19.33;8.25;;;13.20;99.90;;;;;;5032463;28;20044;-83
2022/10/28 01:01:58;;;;;;;13.32;7.90;;;13.20;99.90;;;;;;5032576;28;20487;-85
2022/10/28 01:04:24;;;;;;;12.73;8.05;;;13.20;99.90;;;;;;5035145;28;20034;-84
2022/10/28 01:06:54;;;;;;;14.23;7.97;;;13.30;99.90;;;;;;5038566;28;20036;-84
2022/10/28 01:09:20;;;;;;;13.70;8.07;;;13.30;99.90;;;;;;5058451;28;20089;-85
2022/10/28 01:12:13;;;;;;;16.15;8.07;;;13.30;99.90;;;;;;5037284;28;20448;-86
2022/10/28 01:15:09;;;;;;;12.23;7.68;;;13.30;99.90;;;;;;5035771;28;20045;-86
2022/10/28 01:17:59;;;;;;;11.68;6.95;;;13.30;99.90;;;;;;5056652;28;20501;-86
2022/10/28 01:20:56;;;;;;;10.15;7.13;;;13.30;99.90;;;;;;5038274;28;20033;-84
2022/10/28 01:23:47;;;;;;;13.38;9.23;;;13.30;99.90;;;;;;5049360;28;20387;-84
2022/10/28 01:26:17;;;;;;;13.05;8.80;;;13.30;99.90;;;;;;5035769;28;20526;-84
2022/10/28 01:29:03;;;;;;;19.90;7.47;;;13.40;99.90;;;;;;5037351;28;20041;-85
2022/10/28 01:31:29;;;;;;;15.13;7.75;;;13.40;99.90;;;;;;5042104;28;20047;-85
2022/10/28 01:34:07;;;;;;;13.25;7.65;;;13.40;99.90;;;;;;5037893;28;20033;-83
2022/10/28 01:36:58;;;;;;;13.43;7.43;;;13.40;99.90;;;;;;5043250;28;20406;-85
2022/10/28 01:39:42;;;;;;;13.73;7.85;;;13.40;99.90;;;;;;5035491;28;20040;-85
2022/10/28 01:42:14;;;;;;;10.93;7.20;;;13.40;99.90;;;;;;5047587;28;20044;-86
2022/10/28 01:44:52;;;;;;;12.55;7.32;;;13.40;99.90;;;;;;5041553;28;20036;-84
2022/10/28 01:47:25;;;;;;;13.45;7.32;;;13.60;99.90;;;;;;5034593;28;20034;-84
2022/10/28 01:50:10;;;;;;;16.25;8.15;;;13.70;99.90;;;;;;5048981;28;20042;-85
2022/10/28 01:52:38;;;;;;;11.80;6.75;;;13.80;99.90;;;;;;5028408;28;20038;-85
2022/10/28 01:55:24;;;;;;;15.40;7.18;;;13.80;99.90;;;;;;5032428;28;20034;-86
2022/10/28 01:57:53;;;;;;;10.55;5.95;;;13.80;99.90;;;;;;5059434;28;20032;-86
2022/10/28 02:00:19;;;;;;;14.05;7.15;;;13.80;99.90;;;;;;5051241;28;20037;-85
2022/10/28 02:02:49;;;;;;;13.57;6.20;;;13.80;99.90;;;;;;5045604;28;20042;-86
2022/10/28 02:05:34;;;;;;;12.07;6.30;;;13.80;99.90;;;;;;5044629;28;20060;-85
2022/10/28 02:08:18;;;;;;;14.68;6.80;;;13.80;99.90;;;;;;5041005;28;20036;-83
2022/10/28 02:11:00;;;;;;;9.02;5.93;;;13.70;99.90;;;;;;5053237;28;20025;-85
2022/10/28 02:13:51;;;;;;;10.45;5.72;;;13.70;99.90;;;;;;5040636;28;20052;-84
2022/10/28 02:16:34;;;;;;;11.35;5.30;;;13.60;99.90;;;;;;5036074;28;20497;-86
2022/10/28 02:19:18;;;;;;;14.73;8.07;;;13.60;99.90;;;;;;5054348;28;20033;-87
2022/10/28 02:21:53;;;;;;;11.00;5.50;;;13.60;99.90;;;;;;5043892;28;20029;-87
2022/10/28 02:24:28;;;;;;;10.93;7.15;;;13.60;99.90;;;;;;5054447;28;20033;-84
2022/10/28 02:27:09;;;;;;;12.27;5.97;;;13.50;99.90;;;;;;5039400;28;20044;-84
2022/10/28 02:29:42;;;;;;;13.95;5.88;;;13.50;99.90;;;;;;5051068;28;20399;-85
2022/10/28 02:32:16;;;;;;;11.68;5.47;;;13.50;99.90;;;;;;5045239;28;20034;-86
2022/10/28 02:34:47;;;;;;;13.77;6.47;;;13.50;99.90;;;;;;5041870;28;20038;-85
2022/10/28 02:37:26;;;;;;;11.90;5.88;;;13.40;99.90;;;;;;5041533;28;20041;-85
2022/10/28 02:40:01;;;;;;;18.17;7.43;;;13.40;99.90;;;;;;5039817;28;20041;-86
2022/10/28 02:42:35;;;;;;;12.25;6.40;;;13.40;99.90;;;;;;5046148;28;20053;-86
2022/10/28 02:45:30;;;;;;;13.65;6.45;;;13.40;99.90;;;;;;5037562;28;20041;-86
2022/10/28 02:48:00;;;;;;;12.48;6.30;;;13.40;99.90;;;;;;5040170;28;20032;-86
2022/10/28 02:50:34;;;;;;;14.27;7.22;;;13.40;99.90;;;;;;5056626;28;20041;-86
2022/10/28 02:53:05;;;;;;;15.23;7.38;;;13.30;99.90;;;;;;5051408;28;20033;-86
2022/10/28 02:55:37;;;;;;;8.75;6.10;;;13.40;99.90;;;;;;5053773;28;20032;-87
2022/10/28 02:58:04;;;;;;;10.07;5.35;;;13.30;99.90;;;;;;5054505;28;20041;-86
2022/10/28 03:00:30;;;;;;;14.15;6.30;;;13.30;99.90;;;;;;5046116;28;20403;-86
2022/10/28 03:02:57;;;;;;;13.00;6.50;;;13.30;99.90;;;;;;5045613;28;20044;-86
2022/10/28 03:05:24;;;;;;;13.27;5.57;;;13.30;99.90;;;;;;5044929;28;20045;-85
2022/10/28 03:07:50;;;;;;;12.13;6.20;;;13.30;99.90;;;;;;5031685;28;20034;-86
2022/10/28 03:10:16;;;;;;;11.05;5.70;;;13.30;99.90;;;;;;5049000;28;20379;-84
2022/10/28 03:12:42;;;;;;;10.13;6.00;;;13.40;99.90;;;;;;5038731;28;20029;-86
2022/10/28 03:15:09;;;;;;;12.98;6.90;;;13.40;99.90;;;;;;5071811;28;20455;-86
2022/10/28 03:17:35;;;;;;;10.18;5.88;;;13.50;99.90;;;;;;5066959;28;20039;-85
2022/10/28 03:20:01;;;;;;;10.65;6.38;;;13.60;99.90;;;;;;5069872;28;20042;-85
2022/10/28 03:22:28;;;;;;;8.93;5.53;;;13.70;99.90;;;;;;5047101;28;20036;-86
2022/10/28 03:24:54;;;;;;;12.68;5.53;;;13.80;99.90;;;;;;5033165;28;20037;-86
2022/10/28 03:27:20;;;;;;;13.18;5.45;;;14.00;99.90;;;;;;5036195;28;20455;-87
2022/10/28 03:29:46;;;;;;;10.27;4.55;;;14.10;99.90;;;;;;5039201;28;20037;-86
2022/10/28 03:32:12;;;;;;;8.88;4.13;;;14.40;99.90;;;;;;5039281;28;20443;-85
2022/10/28 03:34:39;;;;;;;8.18;3.80;;;14.50;99.90;;;;;;5053553;28;20036;-87
2022/10/28 03:37:05;;;;;;;8.55;3.95;;;14.70;99.90;;;;;;5054920;28;20275;-84
2022/10/28 03:39:31;;;;;;;8.65;4.07;;;14.80;99.90;;;;;;5039358;28;20041;-84
2022/10/28 03:41:57;;;;;;;8.50;3.33;;;14.90;99.90;;;;;;5037218;28;20029;-85
2022/10/28 03:44:23;;;;;;;7.40;3.60;;;15.00;99.90;;;;;;5039264;28;20398;-85
2022/10/28 03:46:49;;;;;;;7.57;3.20;;;15.10;99.90;;;;;;5047616;28;20040;-84
2022/10/28 03:49:16;;;;;;;8.63;3.45;;;15.00;99.90;;;;;;5047663;28;20041;-86
2022/10/28 03:51:42;;;;;;;9.23;3.22;;;15.10;99.90;;;;;;5053469;28;20033;-85
2022/10/28 03:54:08;;;;;;;6.13;3.30;;;15.00;99.90;;;;;;5036065;28;20029;-84
2022/10/28 03:56:34;;;;;;;13.05;3.63;;;15.00;99.90;;;;;;5037055;28;21020;-84
2022/10/28 03:59:00;;;;;;;10.05;4.40;;;15.00;99.90;;;;;;5036161;28;20026;-84
2022/10/28 04:01:26;;;;;;;7.72;3.83;;;14.90;99.90;;;;;;5025980;28;20054;-84
2022/10/28 04:03:53;;;;;;;11.98;4.00;;;14.90;99.90;;;;;;5045376;28;20048;-84
2022/10/28 04:06:19;;;;;;;14.52;3.97;;;14.90;99.90;;;;;;5034993;28;20030;-83
2022/10/28 04:08:45;;;;;;;6.72;2.67;;;15.00;99.90;;;;;;5048213;28;20040;-85
2022/10/28 04:11:11;;;;;;;7.88;3.20;;;15.00;99.90;;;;;;5045011;28;20029;-83
2022/10/28 04:13:37;;;;;;;8.55;3.95;;;15.00;99.90;;;;;;5046367;28;20040;-81
2022/10/28 04:16:04;;;;;;;15.23;4.80;;;15.00;99.90;;;;;;5040076;28;20033;-82
2022/10/28 04:18:30;;;;;;;5.70;3.25;;;14.90;99.90;;;;;;5045573;28;20409;-83
2022/10/28 04:20:57;;;;;;;7.90;3.60;;;14.90;99.90;;;;;;5048827;28;20037;-83
2022/10/28 04:23:23;;;;;;;12.32;3.10;;;14.70;99.90;;;;;;5039037;28;20033;-82
2022/10/28 04:25:53;;;;;;;10.68;3.85;;;14.60;99.90;;;;;;5033035;28;20032;-82
2022/10/28 04:28:22;;;;;;;9.40;3.53;;;14.40;99.90;;;;;;5051961;28;20029;-82
2022/10/28 04:30:49;;;;;;;14.90;4.30;;;14.20;99.90;;;;;;5036068;28;20033;-82
2022/10/28 04:33:15;;;;;;;14.75;4.50;;;14.10;99.90;;;;;;5045329;28;20040;-82
2022/10/28 04:35:42;;;;;;;11.07;4.47;;;14.10;99.90;;;;;;5043984;28;20049;-82
2022/10/28 04:38:09;;;;;;;14.85;4.13;;;14.00;99.90;;;;;;5037548;28;20033;-82
2022/10/28 04:40:35;;;;;;;6.70;3.78;;;14.00;99.90;;;;;;5051795;28;20041;-82
2022/10/28 04:43:02;;;;;;;8.32;4.38;;;13.90;99.90;;;;;;5052613;28;20032;-83
2022/10/28 04:45:28;;;;;;;7.82;4.15;;;13.80;99.90;;;;;;5032063;28;20043;-82
2022/10/28 04:47:59;;;;;;;8.55;4.32;;;13.80;99.90;;;;;;5048114;28;20037;-83
2022/10/28 04:50:26;;;;;;;8.85;4.18;;;13.70;99.90;;;;;;5031921;28;20395;-82
2022/10/28 04:52:53;;;;;;;9.23;4.47;;;13.70;99.90;;;;;;5042452;28;20048;-83
2022/10/28 04:55:19;;;;;;;7.05;3.58;;;13.70;99.90;;;;;;5049831;28;20360;-80
2022/10/28 04:57:56;;;;;;;12.35;5.32;;;13.70;99.90;;;;;;5049443;28;20101;-83
2022/10/28 05:00:23;;;;;;;10.93;3.88;;;13.60;99.90;;;;;;5029812;28;20378;-82
2022/10/28 05:02:50;;;;;;;12.18;4.38;;;13.60;99.90;;;;;;5051157;28;20043;-83
2022/10/28 05:05:17;;;;;;;8.43;4.20;;;13.50;99.90;;;;;;5049790;28;20040;-82
2022/10/28 05:07:43;;;;;;;9.63;4.25;;;13.50;99.90;;;;;;5051011;28;20041;-83
2022/10/28 05:10:11;;;;;;;13.43;5.03;;;13.50;99.90;;;;;;5036064;28;20048;-83
2022/10/28 05:12:40;;;;;;;10.70;4.15;;;13.40;99.90;;;;;;5039398;28;20033;-82
2022/10/28 05:15:07;;;;;;;10.23;3.90;;;13.40;99.90;;;;;;5049921;28;20134;-83
2022/10/28 05:17:34;;;;;;;13.57;4.93;;;13.40;99.90;;;;;;5050655;28;20390;-82
2022/10/28 05:20:00;;;;;;;12.15;4.50;;;13.40;99.90;;;;;;5051137;28;20036;-80
2022/10/28 05:22:26;;;;;;;9.15;3.95;;;13.30;99.90;;;;;;5050816;28;20025;-80
2022/10/28 05:24:52;;;;;;;10.85;4.57;;;13.20;99.90;;;;;;5053604;28;20037;-80
2022/10/28 05:27:18;;;;;;;10.55;4.53;;;13.20;99.90;;;;;;5052703;28;20040;-82
2022/10/28 05:29:44;;;;;;;10.13;4.55;;;13.20;99.90;;;;;;5050600;28;20048;-80
2022/10/28 05:32:10;;;;;;;6.57;4.05;;;13.10;99.90;;;;;;5051641;28;20040;-80
2022/10/28 05:34:36;;;;;;;8.27;3.85;;;13.00;99.90;;;;;;5050660;28;20092;-82
2022/10/28 05:37:03;;;;;;;9.75;4.63;;;12.90;99.90;;;;;;5055664;28;20059;-83
2022/10/28 05:39:29;;;;;;;8.85;4.70;;;12.90;99.90;;;;;;5041877;28;20038;-82
2022/10/28 05:41:55;;;;;;;10.07;4.65;;;12.90;99.90;;;;;;5037543;28;20031;-83
2022/10/28 05:44:21;;;;;;;5.95;4.40;;;12.80;99.90;;;;;;5035898;28;20030;-79
2022/10/28 05:46:47;;;;;;;6.65;4.10;;;12.80;99.90;;;;;;5055962;28;20040;-82
2022/10/28 05:49:19;;;;;;;10.55;5.03;;;12.80;99.90;;;;;;5056756;28;20393;-82
2022/10/28 05:51:46;;;;;;;13.63;4.30;;;12.70;99.90;;;;;;5055247;28;20470;-81
2022/10/28 05:54:12;;;;;;;8.10;4.47;;;12.70;99.90;;;;;;5036600;28;20036;-82
2022/10/28 05:56:38;;;;;;;11.43;5.57;;;12.70;99.90;;;;;;5035107;28;20040;-81
2022/10/28 05:59:04;;;;;;;10.82;4.93;;;12.70;99.90;;;;;;5035964;28;20041;-82
2022/10/28 06:01:30;;;;;;;13.55;5.18;;;12.70;99.90;;;;;;5032017;28;20049;-82
2022/10/28 06:03:56;;;;;;;11.52;5.60;;;12.90;99.90;;;;;;5033938;28;20037;-82
2022/10/28 06:06:23;;;;;;;9.98;5.18;;;13.00;99.90;;;;;;5049994;28;20037;-81
2022/10/28 06:08:49;;;;;;;10.27;5.32;;;13.10;99.90;;;;;;5047808;28;20033;-81
2022/10/28 06:11:15;;;;;;;14.75;5.50;;;13.30;99.90;;;;;;5040253;28;20052;-82
2022/10/28 06:13:41;;;;;;;11.85;4.40;;;13.40;99.90;;;;;;5033893;28;20368;-82
2022/10/28 06:16:07;;;;;;;9.55;4.60;;;13.50;99.90;;;;;;5052674;28;20033;-81
2022/10/28 06:18:33;;;;;;;13.18;4.07;;;13.50;99.90;;;;;;5054349;28;20029;-81
2022/10/28 06:21:00;;;;;;;8.60;3.75;;;13.40;99.90;;;;;;5053227;28;20029;-81
2022/10/28 06:23:27;;;;;;;8.77;4.40;;;13.30;99.90;;;;;;5042364;28;20043;-81
2022/10/28 06:26:02;;;;;;;10.88;4.93;;;13.30;99.90;;;;;;5035739;28;20033;-82
2022/10/28 06:28:29;;;;;;;9.70;4.88;;;13.30;99.90;;;;;;5054588;28;20036;-80
2022/10/28 06:31:04;;;;;;;11.50;4.10;;;13.30;99.90;;;;;;5054090;28;20053;-81
2022/10/28 06:33:34;;;;;;;11.73;4.63;;;13.30;99.90;;;;;;5052604;28;20374;-82
2022/10/28 06:36:00;;;;;;;10.40;4.82;;;13.30;99.90;;;;;;5061006;28;20051;-81
2022/10/28 06:38:28;;;;;;;9.88;4.53;;;13.40;99.90;;;;;;5062757;28;20033;-80
2022/10/28 06:40:58;;;;;;;11.10;5.95;;;13.50;99.90;;;;;;5057070;28;20394;-80
2022/10/28 06:43:24;;;;;;;10.67;4.10;;;13.70;99.90;;;;;;5038320;28;20056;-80
2022/10/28 06:45:55;;;;;;;9.07;3.90;;;13.80;99.90;;;;;;5033720;28;20261;-80
2022/10/28 06:48:22;;;;;;;8.68;4.65;;;13.90;99.90;;;;;;5034981;28;20036;-81
2022/10/28 06:50:48;;;;;;;9.45;4.85;;;14.00;99.90;;;;;;5034657;28;20042;-83
2022/10/28 06:53:15;;;;;;;11.93;4.10;;;14.00;99.90;;;;;;5034026;28;20040;-81
2022/10/28 06:55:41;;;;;;;9.82;4.35;;;14.10;99.90;;;;;;5040223;28;20036;-81
2022/10/28 06:58:08;;;;;;;9.52;3.72;;;14.20;99.90;;;;;;5051289;28;20036;-80
2022/10/28 07:00:34;;;;;;;10.25;4.20;;;14.20;99.90;;;;;;5035234;28;20040;-83
2022/10/28 07:03:00;;;;;;;13.35;4.20;;;14.30;99.90;;;;;;5027286;28;20037;-83
2022/10/28 07:05:27;;;;;;;9.73;4.13;;;14.30;99.90;;;;;;5028646;28;20041;-84
2022/10/28 07:07:53;;;;;;;8.57;3.83;;;14.40;99.90;;;;;;5038137;28;20391;-83
2022/10/28 07:10:19;;;;;;;7.32;4.05;;;14.40;99.90;;;;;;5036392;28;20394;-84
2022/10/28 07:12:46;;;;;;;5.40;3.72;;;14.40;99.90;;;;;;5054576;28;20029;-83
2022/10/28 07:15:12;;;;;;;10.13;3.90;;;14.40;99.90;;;;;;5053810;28;20478;-84
2022/10/28 07:17:38;;;;;;;12.90;5.68;;;14.40;99.90;;;;;;5054049;28;20040;-84
2022/10/28 07:20:05;;;;;;;8.80;4.32;;;14.50;99.90;;;;;;5054513;28;20033;-82
2022/10/28 07:22:31;;;;;;;9.85;3.67;;;14.60;99.90;;;;;;5053979;28;20044;-83
2022/10/28 07:24:57;;;;;;;10.43;4.60;;;14.70;99.90;;;;;;5053008;28;20036;-82
2022/10/28 07:27:23;;;;;;;9.90;3.97;;;14.80;99.90;;;;;;5053766;28;20029;-81
2022/10/28 07:29:49;;;;;;;8.90;3.38;;;14.90;99.90;;;;;;5051832;28;20041;-82
2022/10/28 07:32:16;;;;;;;14.10;3.75;;;15.00;99.90;;;;;;5034388;28;20334;-83
2022/10/28 07:34:42;;;;;;;7.72;3.85;;;15.10;99.90;;;;;;5031830;28;20029;-83
2022/10/28 07:37:10;;;;;;;13.13;3.78;;;15.30;99.90;;;;;;5034617;28;20124;-82
2022/10/28 07:39:37;;;;;;;8.18;3.58;;;15.30;99.90;;;;;;5027932;28;20037;-84
2022/10/28 07:42:03;;;;;;;7.72;4.00;;;15.40;99.90;;;;;;5038748;28;20470;-84
2022/10/28 07:44:30;;;;;;;9.95;3.88;;;15.50;99.90;;;;;;5033804;28;20029;-82
2022/10/28 07:46:56;;;;;;;9.07;4.18;;;15.60;99.90;;;;;;5049929;28;20033;-83
2022/10/28 07:49:22;;;;;;;8.13;3.33;;;15.70;99.90;;;;;;5041450;28;20046;-81
2022/10/28 07:51:50;;;;;;;11.05;4.05;;;15.80;99.90;;;;;;5039156;28;20040;-82
2022/10/28 07:54:16;;;;;;;13.23;3.78;;;15.90;99.90;;;;;;5045184;28;20032;-83
2022/10/28 07:56:42;;;;;;;15.90;4.38;;;16.00;99.90;;;;;;5035247;28;20029;-81
2022/10/28 07:59:08;;;;;;;10.45;3.85;;;16.10;99.90;;;;;;5037302;28;20032;-81
2022/10/28 08:01:34;;;;;;;9.07;2.95;;;16.20;99.90;;;;;;5046603;28;20052;-78
2022/10/28 08:04:01;;;;;;;11.23;3.60;;;16.30;99.90;;;;;;5031899;28;20029;-78
2022/10/28 08:06:27;;;;;;;8.13;2.83;;;16.30;99.90;;;;;;5049180;28;20040;-81
2022/10/28 08:08:55;;;;;;;10.07;3.45;;;16.40;99.90;;;;;;5052229;28;20018;-81
2022/10/28 08:11:22;;;;;;;9.30;2.95;;;16.30;99.90;;;;;;5050725;28;20052;-80
2022/10/28 08:13:49;;;;;;;6.20;3.05;;;16.40;99.90;;;;;;5032036;28;20033;-80
2022/10/28 08:16:16;;;;;;;7.38;2.88;;;16.40;99.90;;;;;;5031152;28;20443;-80
2022/10/28 08:18:44;;;;;;;8.80;3.22;;;16.50;99.90;;;;;;5033361;28;20033;-81
2022/10/28 08:21:11;;;;;;;13.60;3.90;;;16.50;99.90;;;;;;5037156;28;20041;-81
2022/10/28 08:23:38;;;;;;;7.47;2.75;;;16.60;99.90;;;;;;5032269;28;20025;-82
2022/10/28 08:26:04;;;;;;;10.60;2.83;;;16.70;99.90;;;;;;5033597;28;20104;-80
2022/10/28 08:28:31;;;;;;;8.77;3.33;;;16.80;99.90;;;;;;5028733;28;20032;-80
2022/10/28 08:31:02;;;;;;;6.57;2.70;;;16.90;99.90;;;;;;5025436;28;20038;-82
2022/10/28 08:33:31;;;;;;;12.00;3.10;;;17.00;99.90;;;;;;5026431;28;20056;-80
2022/10/28 08:35:57;;;;;;;7.47;2.65;;;17.10;99.90;;;;;;5047059;28;20033;-80
2022/10/28 08:38:23;;;;;;;7.90;2.75;;;17.20;99.90;;;;;;5037741;28;20044;-81
2022/10/28 08:41:14;;;;;;;11.98;3.35;;;17.20;99.90;;;;;;5032142;28;20482;-82
2022/10/28 08:44:17;;;;;;;6.35;2.28;;;17.30;99.90;;;;;;5031020;28;20025;-82
2022/10/28 08:46:57;;;;;;;7.97;3.50;;;17.40;99.90;;;;;;5039587;28;20036;-83
2022/10/28 08:49:24;;;;;;;4.03;2.10;;;17.50;99.90;;;;;;5037979;28;20033;-82
2022/10/28 08:52:12;;;;;;;9.10;2.95;;;17.60;99.90;;;;;;5032184;28;20283;-78
2022/10/28 08:55:03;;;;;;;5.03;2.58;;;17.70;99.90;;;;;;5043925;28;20033;-79
2022/10/28 08:57:39;;;;;;;7.57;2.65;;;17.80;99.90;;;;;;5031535;28;20056;-80
2022/10/28 09:00:15;;;;;;;8.82;3.63;;;17.90;99.90;;;;;;5030742;28;20045;-80
2022/10/28 09:02:55;;;;;;;5.95;2.10;;;17.90;99.90;;;;;;5046316;28;20040;-81
2022/10/28 09:05:24;;;;;;;5.27;1.73;;;18.00;99.90;;;;;;5050953;28;20048;-81
2022/10/28 09:07:51;;;;;;;6.97;2.28;;;18.00;99.90;;;;;;5039192;28;20041;-81
2022/10/28 09:10:46;;;;;;;6.47;2.22;;;18.10;99.90;;;;;;5032253;28;20474;-80
2022/10/28 09:13:27;;;;;;;6.70;2.33;;;18.20;99.90;;;;;;5060491;28;20041;-81
2022/10/28 09:16:06;;;;;;;6.50;2.13;;;18.20;99.90;;;;;;5030725;28;20041;-80
2022/10/28 09:18:35;;;;;;;6.07;2.28;;;18.20;99.50;;;;;;5036568;28;20044;-81
2022/10/28 09:21:04;;;;;;;4.85;2.35;;;18.30;99.00;;;;;;5033296;28;20037;-80
2022/10/28 09:23:39;;;;;;;5.88;2.17;;;18.40;99.20;;;;;;5048371;28;20033;-79
2022/10/28 09:26:32;;;;;;;5.82;1.98;;;18.50;99.80;;;;;;5051472;28;20044;-81
2022/10/28 09:29:24;;;;;;;6.13;2.20;;;18.60;99.90;;;;;;5051159;28;20406;-80
2022/10/28 09:32:13;;;;;;;9.30;3.35;;;18.60;98.70;;;;;;5036962;28;20053;-80
2022/10/28 09:34:45;;;;;;;5.93;2.70;;;18.60;99.70;;;;;;5038038;28;20041;-81
2022/10/28 09:37:18;;;;;;;7.68;2.75;;;18.50;99.50;;;;;;5052027;28;20033;-80
2022/10/28 09:39:51;;;;;;;11.82;3.22;;;18.40;99.40;;;;;;5030941;28;20041;-80
2022/10/28 09:42:27;;;;;;;7.72;2.35;;;18.30;99.90;;;;;;5050721;28;20029;-80
2022/10/28 09:45:04;;;;;;;10.45;3.08;;;18.40;99.90;;;;;;5040522;28;20037;-80
2022/10/28 09:47:43;;;;;;;5.85;2.47;;;18.50;99.60;;;;;;5064660;28;20041;-81
2022/10/28 09:50:21;;;;;;;6.43;2.40;;;18.70;99.90;;;;;;5047371;28;20049;-80
2022/10/28 09:53:00;;;;;;;6.88;2.60;;;19.10;97.80;;;;;;5050799;28;20029;-80
2022/10/28 09:55:27;;;;;;;6.47;2.55;;;19.50;96.10;;;;;;5052017;28;20374;-81
2022/10/28 09:57:54;;;;;;;9.23;2.38;;;19.70;94.60;;;;;;5049916;28;20048;-80
2022/10/28 10:00:20;;;;;;;5.95;2.17;;;19.80;93.60;;;;;;5048320;28;20041;-80
2022/10/28 10:02:47;;;;;;;4.53;2.10;;;19.50;91.90;;;;;;5018006;28;20036;-81
2022/10/28 10:05:16;;;;;;;7.30;2.90;;;19.50;93.00;;;;;;5032474;28;20040;-83
2022/10/28 10:07:50;;;;;;;9.48;2.65;;;19.50;93.60;;;;;;5025575;28;20030;-78
2022/10/28 10:10:26;;;;;;;6.80;2.42;;;19.80;92.40;;;;;;5032685;28;20506;-81
2022/10/28 10:12:57;;;;;;;5.97;2.35;;;19.90;91.40;;;;;;5027384;28;20272;-83
2022/10/28 10:15:34;;;;;;;5.65;2.30;;;19.80;91.10;;;;;;5046628;28;20045;-81
2022/10/28 10:18:03;;;;;;;7.63;2.20;;;20.00;90.80;;;;;;5014858;28;20030;-83
2022/10/28 10:20:48;;;;;;;7.55;2.67;;;20.00;90.30;;;;;;5035672;28;20053;-82
2022/10/28 10:23:26;;;;;;;6.47;2.50;;;20.10;88.80;;;;;;5032019;28;20032;-83
2022/10/28 10:26:02;;;;;;;12.95;2.78;;;20.20;87.60;;;;;;5032754;28;20041;-82
2022/10/28 10:28:29;;;;;;;6.93;2.65;;;20.40;88.50;;;;;;5034037;28;20040;-84
2022/10/28 10:31:07;;;;;;;8.25;2.63;;;20.40;81.10;;;;;;5041484;28;20050;-81
2022/10/28 10:33:38;;;;;;;6.25;2.67;;;20.50;82.00;;;;;;5029212;28;20041;-80
2022/10/28 10:36:14;;;;;;;7.75;2.08;;;20.40;82.70;;;;;;5055312;28;20033;-82
2022/10/28 10:38:49;;;;;;;7.75;2.78;;;20.40;83.60;;;;;;5037733;28;20493;-80
2022/10/28 10:41:34;;;;;;;8.68;2.72;;;20.40;84.50;;;;;;5053058;28;20056;-82
2022/10/28 10:44:00;;;;;;;6.30;2.90;;;20.20;82.10;;;;;;5053431;28;20025;-81
2022/10/28 10:46:26;;;;;;;5.47;2.00;;;20.20;81.80;;;;;;5036522;28;20033;-82
2022/10/28 10:49:26;;;;;;;6.10;2.40;;;20.10;82.90;;;;;;5034268;28;20029;-82
2022/10/28 10:52:06;;;;;;;7.47;2.47;;;20.30;85.70;;;;;;5015447;28;20046;-83
2022/10/28 10:54:34;;;;;;;9.77;3.78;;;20.40;81.60;;;;;;5044772;28;20033;-83
2022/10/28 10:57:17;;;;;;;4.47;2.13;;;20.60;80.10;;;;;;5047613;28;20040;-82
2022/10/28 10:59:49;;;;;;;8.52;3.05;;;20.70;75.50;;;;;;5051161;28;20263;-83
2022/10/28 11:02:38;;;;;;;6.85;2.78;;;20.60;76.30;;;;;;5050483;28;20064;-83
2022/10/28 11:05:07;;;;;;;5.45;2.33;;;20.60;76.10;;;;;;5041295;28;20045;-83
2022/10/28 11:07:35;;;;;;;9.50;2.28;;;20.60;77.30;;;;;;5065739;28;20029;-83
2022/10/28 11:10:02;;;;;;;12.70;2.63;;;20.80;79.20;;;;;;5041996;28;20045;-82
2022/10/28 11:12:35;;;;;;;5.68;2.00;;;20.80;73.90;;;;;;5012607;28;20041;-82
2022/10/28 11:15:15;;;;;;;12.60;2.35;;;20.90;74.10;;;;;;5038043;28;20028;-82
2022/10/28 11:18:07;;;;;;;8.52;2.53;;;20.90;75.40;;;;;;5053296;28;20029;-82
2022/10/28 11:20:48;;;;;;;7.65;2.65;;;20.90;71.90;;;;;;5023499;28;20041;-79
2022/10/28 11:23:26;;;;;;;5.03;1.90;;;20.90;71.10;;;;;;5028798;28;20497;-83
2022/10/28 11:25:56;;;;;;;5.63;2.45;;;21.00;72.20;;;;;;5032235;28;20037;-82
2022/10/28 11:28:32;;;;;;;6.93;2.33;;;21.20;69.30;;;;;;5027926;28;20029;-81
2022/10/28 11:31:34;;;;;;;9.95;2.35;;;21.40;70.40;;;;;;5063874;28;20090;-82
2022/10/28 11:34:27;;;;;;;5.32;2.30;;;21.50;67.40;;;;;;5027877;28;20029;-82
2022/10/28 11:37:10;;;;;;;13.50;2.22;;;21.50;64.90;;;;;;5032805;28;20034;-83
2022/10/28 11:40:03;;;;;;;7.38;1.92;;;21.60;61.10;;;;;;5033522;28;20033;-82
2022/10/28 11:43:07;;;;;;;5.43;2.35;;;21.70;60.20;;;;;;5028771;28;20400;-83
2022/10/28 11:45:54;;;;;;;6.32;2.20;;;21.80;58.00;;;;;;5033578;28;20044;-82
2022/10/28 11:48:35;;;;;;;10.57;2.20;;;21.90;58.60;;;;;;5037296;28;20033;-82
2022/10/28 11:51:07;;;;;;;;;;;22.00;56.90;;;;;;5030848;28;20040;-81
2022/10/28 11:53:39;;;;;;;5.18;2.10;;;22.10;56.50;;;;;;5052080;28;19909;-83
2022/10/28 11:56:23;;;;;;;7.10;2.17;;;22.20;55.70;;;;;;5052230;28;20029;-84
2022/10/28 11:59:21;;;;;;;6.15;2.28;;;22.10;55.00;;;;;;5051511;28;20048;-81
2022/10/28 12:02:09;;;;;;;9.23;2.53;;;22.10;55.00;;;;;;5048003;28;20049;-81
2022/10/28 12:05:00;;;;;;;8.73;2.47;;;22.10;54.00;;;;;;5052010;28;20481;-83
2022/10/28 12:07:45;;;;;;;5.65;2.33;;;22.00;53.60;;;;;;5031691;28;20025;-83
2022/10/28 12:10:32;;;;;;;8.50;2.30;;;22.10;54.70;;;;;;5043127;28;20471;-84
2022/10/28 12:13:18;;;;;;;8.23;1.90;;;22.00;53.40;;;;;;5032704;28;20253;-83
2022/10/28 12:15:56;;;;;;;11.40;2.95;;;22.00;55.70;;;;;;5029875;28;20033;-82
2022/10/28 12:18:32;;;;;;;12.13;2.92;;;22.10;55.10;;;;;;5036725;28;20477;-81
2022/10/28 12:21:09;;;;;;;9.98;2.15;;;22.30;53.20;;;;;;5029256;28;20037;-82
2022/10/28 12:23:37;;;;;;;4.35;1.95;;;22.40;52.70;;;;;;5030743;28;20029;-84
2022/10/28 12:26:08;;;;;;;8.93;2.35;;;22.50;50.00;;;;;;5032259;28;20096;-83
2022/10/28 12:28:52;;;;;;;10.18;2.13;;;22.50;50.90;;;;;;5032082;28;20036;-83
2022/10/28 12:31:18;;;;;;;5.25;2.15;;;22.50;50.60;;;;;;5028639;28;20060;-82
2022/10/28 12:33:48;;;;;;;11.40;2.30;;;22.70;49.80;;;;;;5043071;28;20029;-82
2022/10/28 12:36:19;;;;;;;6.22;2.05;;;22.90;49.70;;;;;;5056168;28;20040;-83
2022/10/28 12:39:08;;;;;;;7.95;2.00;;;23.10;48.00;;;;;;5055033;28;20033;-82
2022/10/28 12:41:59;;;;;;;8.00;2.40;;;23.00;47.90;;;;;;5031121;28;20037;-82
2022/10/28 12:44:27;;;;;;;6.53;2.03;;;22.90;47.90;;;;;;5031983;28;20467;-82
2022/10/28 12:47:20;;;;;;;5.25;2.33;;;22.80;48.90;;;;;;5031361;28;20033;-82
2022/10/28 12:49:58;;;;;;;8.27;2.40;;;22.60;48.50;;;;;;5031584;28;20034;-82
2022/10/28 12:52:54;;;;;;;6.07;2.13;;;22.70;49.40;;;;;;5049933;28;20040;-82
2022/10/28 12:55:36;;;;;;;6.75;2.47;;;22.80;48.10;;;;;;5047086;28;20029;-84
2022/10/28 12:58:11;;;;;;;6.47;1.60;;;23.00;47.60;;;;;;5036850;28;20631;-83
2022/10/28 13:00:43;;;;;;;8.02;2.45;;;23.10;47.80;;;;;;5051133;28;20045;-81
2022/10/28 13:03:13;;;;;;;5.40;2.80;;;23.30;47.20;;;;;;5046389;28;20017;-82
2022/10/28 13:06:01;;;;;;;7.82;1.92;;;23.50;45.90;;;;;;5028601;28;20152;-79
2022/10/28 13:08:58;;;;;;;7.55;2.20;;;23.30;44.00;;;;;;5030694;28;20029;-83
2022/10/28 13:12:02;;;;;;;7.28;2.25;;;23.10;45.10;;;;;;5029032;28;20037;-82